WLS319 EGFF-GCFV
Flight info
| Callsign | WLS319 |
|---|---|
| Flight time | N/A |
| Altitude | 36000 |
| Route | EXMOR DCT JOZMA DCT AMPOP DCT SOSOV/N0453F350 DCT DEMOS DCT BEXAL/N0449F370 DCT BENTU DCT TERTO |
| Aircraft | A320/M-SDE3FGHIRWY/LB1 |
Departure
| Time | 2026-04-27 16:27 |
|---|---|
| Airport | Cardiff International Airport (EGFF) |
Arrival
| Time | N/A |
|---|---|
| Airport | Fuerteventura Airport (GCFV) |
| Time | Latitude | Longitude | Altitude | Speed | Heading |
|---|---|---|---|---|---|
| 2026-04-27 15:57 | 51.39765 | -3.33840 | 221 ft | 0 kts | 82° |
| 2026-04-27 16:18 | 51.39763 | -3.33857 | 220 ft | 4 kts | 82° |
| 2026-04-27 16:19 | 51.39759 | -3.33900 | 220 ft | 4 kts | 82° |
| 2026-04-27 16:19 | 51.39756 | -3.33942 | 220 ft | 4 kts | 83° |
| 2026-04-27 16:20 | 51.39757 | -3.34044 | 221 ft | 0 kts | 116° |
| 2026-04-27 16:22 | 51.39718 | -3.33921 | 220 ft | 28 kts | 117° |
| 2026-04-27 16:22 | 51.39647 | -3.33699 | 218 ft | 14 kts | 117° |
| 2026-04-27 16:23 | 51.39605 | -3.33567 | 223 ft | 13 kts | 116° |
| 2026-04-27 16:23 | 51.39519 | -3.33292 | 221 ft | 14 kts | 116° |
| 2026-04-27 16:23 | 51.39476 | -3.33156 | 221 ft | 14 kts | 116° |
| 2026-04-27 16:24 | 51.39417 | -3.33032 | 220 ft | 15 kts | 137° |
| 2026-04-27 16:24 | 51.39251 | -3.32795 | 218 ft | 13 kts | 179° |
| 2026-04-27 16:25 | 51.39207 | -3.32895 | 218 ft | 0 kts | 297° |
| 2026-04-27 16:26 | 51.39519 | -3.33877 | 220 ft | 120 kts | 296° |
| 2026-04-27 16:26 | 51.40515 | -3.37077 | 751 ft | 180 kts | 294° |
| 2026-04-27 16:27 | 51.41591 | -3.40643 | 2327 ft | 186 kts | 297° |
| 2026-04-27 16:27 | 51.43607 | -3.47309 | 3633 ft | 253 kts | 296° |
| 2026-04-27 16:28 | 51.43711 | -3.53030 | 4895 ft | 275 kts | 245° |
| 2026-04-27 16:28 | 51.40731 | -3.56503 | 5009 ft | 276 kts | 186° |
| 2026-04-27 16:29 | 51.36366 | -3.52057 | 5009 ft | 265 kts | 103° |
| 2026-04-27 16:30 | 51.35733 | -3.46244 | 5013 ft | 265 kts | 98° |
| 2026-04-27 16:30 | 51.34315 | -3.40845 | 5014 ft | 271 kts | 126° |
| 2026-04-27 16:31 | 51.30671 | -3.34025 | 5005 ft | 272 kts | 144° |
| 2026-04-27 16:31 | 51.27058 | -3.32317 | 4999 ft | 277 kts | 182° |
| 2026-04-27 16:32 | 51.23276 | -3.33543 | 4997 ft | 279 kts | 196° |
| 2026-04-27 16:32 | 51.21410 | -3.34388 | 4999 ft | 278 kts | 196° |
| 2026-04-27 16:33 | 51.17735 | -3.36236 | 4996 ft | 277 kts | 207° |
| 2026-04-27 16:33 | 51.16106 | -3.37866 | 5427 ft | 283 kts | 216° |
| 2026-04-27 16:33 | 51.14491 | -3.39623 | 6500 ft | 281 kts | 216° |
| 2026-04-27 16:33 | 51.12867 | -3.41363 | 7393 ft | 283 kts | 216° |
| 2026-04-27 16:34 | 51.11228 | -3.43110 | 8279 ft | 285 kts | 216° |
| 2026-04-27 16:34 | 51.09569 | -3.44874 | 9131 ft | 288 kts | 216° |
| 2026-04-27 16:34 | 51.07893 | -3.46656 | 9957 ft | 291 kts | 216° |
| 2026-04-27 16:34 | 51.06175 | -3.48485 | 10439 ft | 308 kts | 216° |
| 2026-04-27 16:35 | 51.04336 | -3.50452 | 10722 ft | 329 kts | 216° |
| 2026-04-27 16:35 | 51.02408 | -3.52512 | 11320 ft | 337 kts | 216° |
| 2026-04-27 16:35 | 50.98478 | -3.56685 | 12727 ft | 347 kts | 216° |
| 2026-04-27 16:36 | 50.96455 | -3.58829 | 13432 ft | 352 kts | 216° |
| 2026-04-27 16:36 | 50.94401 | -3.61006 | 14123 ft | 357 kts | 216° |
| 2026-04-27 16:36 | 50.92323 | -3.63206 | 14738 ft | 361 kts | 216° |
| 2026-04-27 16:36 | 50.90220 | -3.65431 | 15373 ft | 365 kts | 216° |
| 2026-04-27 16:37 | 50.88097 | -3.67678 | 15997 ft | 369 kts | 216° |
| 2026-04-27 16:37 | 50.85952 | -3.69948 | 16620 ft | 373 kts | 216° |
| 2026-04-27 16:37 | 50.83780 | -3.72241 | 17237 ft | 377 kts | 215° |
| 2026-04-27 16:37 | 50.81618 | -3.74518 | 17843 ft | 381 kts | 214° |
| 2026-04-27 16:38 | 50.79395 | -3.76855 | 18401 ft | 387 kts | 214° |
| 2026-04-27 16:38 | 50.77141 | -3.79217 | 18916 ft | 391 kts | 214° |
| 2026-04-27 16:38 | 50.74859 | -3.81609 | 19427 ft | 395 kts | 214° |
| 2026-04-27 16:38 | 50.72560 | -3.84022 | 19941 ft | 399 kts | 214° |
| 2026-04-27 16:39 | 50.70232 | -3.86465 | 20448 ft | 403 kts | 214° |
| 2026-04-27 16:39 | 50.67882 | -3.88924 | 20956 ft | 408 kts | 214° |
| 2026-04-27 16:39 | 50.65507 | -3.91405 | 21462 ft | 412 kts | 214° |
| 2026-04-27 16:39 | 50.63248 | -3.94100 | 21966 ft | 415 kts | 224° |
| 2026-04-27 16:40 | 50.61261 | -3.97410 | 22474 ft | 417 kts | 234° |
| 2026-04-27 16:40 | 50.59519 | -4.01070 | 22981 ft | 420 kts | 236° |
| 2026-04-27 16:40 | 50.57762 | -4.04765 | 23487 ft | 424 kts | 235° |
| 2026-04-27 16:40 | 50.55979 | -4.08490 | 23917 ft | 429 kts | 235° |
| 2026-04-27 16:41 | 50.54168 | -4.12258 | 24319 ft | 434 kts | 235° |
| 2026-04-27 16:41 | 50.52339 | -4.16051 | 24720 ft | 437 kts | 235° |
| 2026-04-27 16:41 | 50.50494 | -4.19872 | 25097 ft | 441 kts | 235° |
| 2026-04-27 16:41 | 50.48630 | -4.23733 | 25469 ft | 445 kts | 235° |
| 2026-04-27 16:42 | 50.46780 | -4.27569 | 25855 ft | 448 kts | 235° |
| 2026-04-27 16:42 | 50.44894 | -4.31479 | 26233 ft | 451 kts | 235° |
| 2026-04-27 16:42 | 50.42993 | -4.35417 | 26611 ft | 454 kts | 235° |
| 2026-04-27 16:42 | 50.41074 | -4.39384 | 26974 ft | 457 kts | 235° |
| 2026-04-27 16:43 | 50.39143 | -4.43370 | 27333 ft | 461 kts | 235° |
| 2026-04-27 16:43 | 50.37198 | -4.47376 | 27691 ft | 464 kts | 236° |
| 2026-04-27 16:43 | 50.35235 | -4.51408 | 28048 ft | 467 kts | 236° |
| 2026-04-27 16:43 | 50.33258 | -4.55455 | 28400 ft | 470 kts | 236° |
| 2026-04-27 16:44 | 50.31261 | -4.59537 | 28678 ft | 474 kts | 235° |
| 2026-04-27 16:44 | 50.29272 | -4.63601 | 28952 ft | 479 kts | 234° |
| 2026-04-27 16:44 | 50.27241 | -4.67746 | 29235 ft | 482 kts | 234° |
| 2026-04-27 16:44 | 50.25191 | -4.71925 | 29543 ft | 485 kts | 235° |
| 2026-04-27 16:45 | 50.23136 | -4.76113 | 29868 ft | 488 kts | 235° |
| 2026-04-27 16:45 | 50.21069 | -4.80325 | 30186 ft | 491 kts | 235° |
| 2026-04-27 16:45 | 50.18982 | -4.84565 | 30454 ft | 493 kts | 234° |
| 2026-04-27 16:45 | 50.16881 | -4.88814 | 30709 ft | 495 kts | 234° |
| 2026-04-27 16:46 | 50.14948 | -4.92718 | 30962 ft | 496 kts | 234° |